Time;durP1;ratioP1;P1;durP2;ratioP2;P2;SDS_P1;SDS_P2;PMS_P1;PMS_P2;Temp;Humidity;BMP_temperature;BMP_pressure;BME280_temperature;BME280_humidity;BME280_pressure;Samples;Min_cycle;Max_cycle;Signal;HPM_P1;HPM_P2
2024/04/14 00:00:30;;;;;;;;;5.00;5.00;;;;;;;;5407114;26;8784;-87
2024/04/14 00:03:02;;;;;;;;;3.75;3.75;;;;;;;;5411746;26;8836;-87
2024/04/14 00:05:28;;;;;;;;;5.00;5.00;;;;;;;;5406751;26;8820;-88
2024/04/14 00:07:57;;;;;;;;;5.25;5.00;;;;;;;;5398687;26;8854;-89
2024/04/14 00:10:23;;;;;;;;;6.50;4.00;;;;;;;;5405138;26;8870;-90
2024/04/14 00:12:56;;;;;;;;;4.00;4.00;;;;;;;;5386546;26;8852;-89
2024/04/14 00:15:25;;;;;;;;;5.75;5.25;;;;;;;;5387156;26;8848;-87
2024/04/14 00:17:54;;;;;;;;;4.00;4.00;;;;;;;;5413509;26;8916;-87
2024/04/14 00:20:22;;;;;;;;;5.25;5.25;;;;;;;;5387921;26;8867;-91
2024/04/14 00:22:51;;;;;;;;;6.25;5.00;;;;;;;;5404721;26;8836;-92
2024/04/14 00:25:18;;;;;;;;;5.00;5.00;;;;;;;;5390636;26;8965;-89
2024/04/14 00:27:47;;;;;;;;;4.75;4.00;;;;;;;;5401585;26;8855;-90
2024/04/14 00:30:13;;;;;;;;;3.25;3.25;;;;;;;;5406217;25;8817;-92
2024/04/14 00:32:44;;;;;;;;;4.00;4.00;;;;;;;;5393538;26;8900;-92
2024/04/14 00:35:11;;;;;;;;;4.25;4.25;;;;;;;;5395267;26;8836;-89
2024/04/14 00:37:43;;;;;;;;;4.25;4.25;;;;;;;;5405563;26;8852;-91
2024/04/14 00:40:10;;;;;;;;;4.00;4.00;;;;;;;;5405012;26;8858;-91
2024/04/14 00:42:39;;;;;;;;;5.00;5.00;;;;;;;;5404508;26;8912;-92
2024/04/14 00:45:06;;;;;;;;;2.25;2.25;;;;;;;;5404505;26;8860;-91
2024/04/14 00:47:35;;;;;;;;;3.67;3.67;;;;;;;;5392660;26;8828;-91
2024/04/14 00:50:08;;;;;;;;;3.67;3.00;;;;;;;;5391505;26;8939;-91
2024/04/14 00:52:37;;;;;;;;;5.00;5.00;;;;;;;;5435604;26;8860;-93
2024/04/14 00:55:04;;;;;;;;;3.33;3.33;;;;;;;;5420910;26;9013;-90
2024/04/14 00:57:33;;;;;;;;;3.33;3.00;;;;;;;;5403967;26;9087;-92
2024/04/14 01:00:00;;;;;;;;;3.67;3.67;;;;;;;;5404457;26;9150;-91
2024/04/14 01:02:33;;;;;;;;;3.00;3.00;;;;;;;;5440840;26;8865;-93
2024/04/14 01:04:59;;;;;;;;;3.00;3.00;;;;;;;;5412038;26;8898;-91
2024/04/14 01:07:31;;;;;;;;;3.67;3.67;;;;;;;;5405399;26;8999;-89
2024/04/14 01:09:58;;;;;;;;;3.67;3.67;;;;;;;;5404333;26;8981;-89
2024/04/14 01:12:27;;;;;;;;;5.00;5.00;;;;;;;;5405293;26;9104;-91
2024/04/14 01:14:53;;;;;;;;;3.67;3.67;;;;;;;;5403605;26;9096;-92
2024/04/14 01:17:22;;;;;;;;;2.00;2.00;;;;;;;;5404638;26;9112;-90
2024/04/14 01:19:48;;;;;;;;;1.75;1.75;;;;;;;;5404393;26;9075;-90
2024/04/14 01:22:18;;;;;;;;;4.00;4.00;;;;;;;;5381074;26;8871;-90
2024/04/14 01:24:47;;;;;;;;;4.33;4.33;;;;;;;;5396371;26;9112;-91
2024/04/14 01:27:19;;;;;;;;;5.00;3.33;;;;;;;;5437817;26;9090;-88
2024/04/14 01:29:45;;;;;;;;;4.00;4.00;;;;;;;;5387263;26;9744;-87
2024/04/14 01:32:14;;;;;;;;;3.25;3.25;;;;;;;;5402559;26;8904;-88
2024/04/14 01:34:43;;;;;;;;;3.00;3.00;;;;;;;;5407044;26;8852;-86
2024/04/14 01:37:12;;;;;;;;;3.00;3.00;;;;;;;;5465294;26;8919;-87
2024/04/14 01:39:41;;;;;;;;;2.00;2.00;;;;;;;;5388278;26;9003;-88
2024/04/14 01:42:13;;;;;;;;;4.00;4.00;;;;;;;;5464387;26;8933;-87
2024/04/14 01:44:42;;;;;;;;;4.00;4.00;;;;;;;;5445420;26;8937;-89
2024/04/14 01:47:11;;;;;;;;;3.25;3.25;;;;;;;;5408086;26;8951;-91
2024/04/14 01:49:38;;;;;;;;;3.00;3.00;;;;;;;;5426592;26;9702;-91
2024/04/14 01:52:08;;;;;;;;;4.00;2.33;;;;;;;;5399695;26;8990;-90
2024/04/14 01:54:34;;;;;;;;;3.00;2.33;;;;;;;;5383226;26;9050;-93
2024/04/14 01:57:03;;;;;;;;;3.00;3.00;;;;;;;;5390069;26;9186;-86
2024/04/14 01:59:29;;;;;;;;;2.00;2.00;;;;;;;;5451147;26;9204;-92
2024/04/14 02:02:01;;;;;;;;;3.00;3.00;;;;;;;;5403429;26;9111;-92
2024/04/14 02:04:32;;;;;;;;;3.00;3.00;;;;;;;;5416572;26;9163;-88
2024/04/14 02:07:00;;;;;;;;;2.33;2.33;;;;;;;;5403400;26;9173;-91
2024/04/14 02:09:30;;;;;;;;;2.67;1.33;;;;;;;;5470622;26;9112;-92
2024/04/14 02:11:59;;;;;;;;;3.33;2.00;;;;;;;;5468508;26;9281;-90
2024/04/14 02:14:27;;;;;;;;;3.00;3.00;;;;;;;;5405068;26;9251;-94
2024/04/14 02:16:56;;;;;;;;;3.33;3.33;;;;;;;;5450637;26;9267;-93
2024/04/14 02:19:25;;;;;;;;;1.33;1.33;;;;;;;;5447660;26;9310;-94
2024/04/14 02:21:54;;;;;;;;;3.00;3.00;;;;;;;;5402827;26;9153;-94
2024/04/14 02:24:21;;;;;;;;;2.33;2.33;;;;;;;;5403240;26;9391;-91
2024/04/14 02:26:49;;;;;;;;;5.00;2.00;;;;;;;;5403525;26;9246;-92
2024/04/14 02:29:16;;;;;;;;;2.00;2.00;;;;;;;;5394124;26;9285;-88
2024/04/14 02:31:45;;;;;;;;;3.67;2.00;;;;;;;;5404259;25;9212;-90
2024/04/14 02:34:13;;;;;;;;;2.33;1.00;;;;;;;;5403401;26;9402;-94
2024/04/14 02:36:45;;;;;;;;;2.33;2.33;;;;;;;;5402702;26;9317;-91
2024/04/14 02:39:12;;;;;;;;;2.00;2.00;;;;;;;;5407287;26;9328;-93
2024/04/14 02:41:42;;;;;;;;;2.00;2.00;;;;;;;;5452783;26;9296;-92
2024/04/14 02:44:09;;;;;;;;;2.67;2.67;;;;;;;;5404438;26;9414;-88
2024/04/14 02:46:38;;;;;;;;;2.00;2.00;;;;;;;;5420227;26;9454;-92
2024/04/14 02:49:05;;;;;;;;;1.50;1.50;;;;;;;;5435043;26;9331;-91
2024/04/14 02:51:34;;;;;;;;;3.75;2.75;;;;;;;;5405904;26;9494;-89
2024/04/14 02:54:03;;;;;;;;;2.00;2.00;;;;;;;;5452401;26;9552;-90
2024/04/14 02:56:32;;;;;;;;;4.00;4.00;;;;;;;;5405993;26;9561;-91
2024/04/14 02:58:59;;;;;;;;;5.50;4.00;;;;;;;;5406878;26;9469;-89
2024/04/14 03:01:28;;;;;;;;;4.50;4.50;;;;;;;;5405366;26;9447;-88
2024/04/14 03:03:54;;;;;;;;;6.00;4.50;;;;;;;;5407199;26;9457;-90
2024/04/14 03:06:23;;;;;;;;;4.00;4.00;;;;;;;;5404541;26;9452;-90
2024/04/14 03:08:49;;;;;;;;;3.00;3.00;;;;;;;;5405700;26;9474;-87
2024/04/14 03:11:21;;;;;;;;;5.75;5.75;;;;;;;;5435608;26;9517;-87
2024/04/14 03:13:47;;;;;;;;;5.00;5.00;;;;;;;;5400271;26;9384;-88
2024/04/14 03:16:16;;;;;;;;;4.00;4.00;;;;;;;;5399650;26;9497;-90
2024/04/14 03:18:45;;;;;;;;;6.00;4.00;;;;;;;;5408583;26;9383;-88
2024/04/14 03:21:14;;;;;;;;;5.00;5.00;;;;;;;;5408940;26;9367;-89
2024/04/14 03:23:42;;;;;;;;;6.00;5.00;;;;;;;;5409017;26;9429;-87
2024/04/14 03:26:14;;;;;;;;;9.00;7.00;;;;;;;;5409594;26;9455;-89
2024/04/14 03:28:42;;;;;;;;;5.25;4.50;;;;;;;;5425089;26;9513;-93
2024/04/14 03:31:11;;;;;;;;;8.50;8.50;;;;;;;;5397942;26;9425;-89
2024/04/14 03:33:44;;;;;;;;;7.75;5.50;;;;;;;;5422028;26;9604;-90
2024/04/14 03:36:14;;;;;;;;;15.25;10.75;;;;;;;;5402064;26;9597;-91
2024/04/14 03:38:43;;;;;;;;;9.00;9.00;;;;;;;;5403910;26;9774;-92
2024/04/14 03:41:11;;;;;;;;;18.25;12.00;;;;;;;;5419749;26;9851;-90
2024/04/14 03:43:48;;;;;;;;;16.50;15.00;;;;;;;;5405683;26;9826;-90
2024/04/14 03:46:15;;;;;;;;;11.75;11.75;;;;;;;;5405259;26;9796;-90
2024/04/14 03:48:43;;;;;;;;;13.50;11.00;;;;;;;;5402587;26;9755;-92
2024/04/14 03:51:11;;;;;;;;;11.50;9.50;;;;;;;;5400205;26;9645;-90
2024/04/14 03:53:43;;;;;;;;;13.75;10.50;;;;;;;;5405863;26;9786;-92
2024/04/14 03:56:10;;;;;;;;;12.50;12.50;;;;;;;;5407352;26;9808;-94
2024/04/14 03:58:39;;;;;;;;;17.00;13.75;;;;;;;;5407345;26;9685;-91
2024/04/14 04:01:08;;;;;;;;;17.25;15.75;;;;;;;;5407623;25;9647;-89
2024/04/14 04:03:37;;;;;;;;;18.00;13.75;;;;;;;;5406967;26;9811;-92
2024/04/14 04:06:03;;;;;;;;;12.25;12.25;;;;;;;;5426358;26;9776;-89
2024/04/14 04:08:32;;;;;;;;;19.25;19.25;;;;;;;;5424867;26;9633;-90
2024/04/14 04:10:59;;;;;;;;;18.25;16.00;;;;;;;;5391207;26;9820;-92
2024/04/14 04:13:31;;;;;;;;;18.75;16.00;;;;;;;;5418623;26;9607;-92
2024/04/14 04:15:58;;;;;;;;;15.00;12.00;;;;;;;;5405356;26;9849;-90
2024/04/14 04:18:30;;;;;;;;;20.75;18.00;;;;;;;;5405354;26;9792;-91
2024/04/14 04:21:01;;;;;;;;;18.00;18.00;;;;;;;;5405130;26;10590;-91
2024/04/14 04:23:32;;;;;;;;;12.25;10.00;;;;;;;;5404783;26;9921;-87
2024/04/14 04:25:59;;;;;;;;;22.00;19.00;;;;;;;;5413745;26;9796;-90
2024/04/14 04:28:32;;;;;;;;;13.50;13.50;;;;;;;;5388637;26;9806;-91
2024/04/14 04:31:09;;;;;;;;;20.50;20.25;;;;;;;;5426293;26;9579;-91
2024/04/14 04:33:43;;;;;;;;;18.25;18.00;;;;;;;;5409095;26;9820;-90
2024/04/14 04:36:13;;;;;;;;;19.25;17.00;;;;;;;;5404882;26;9775;-92
2024/04/14 04:38:42;;;;;;;;;16.75;14.25;;;;;;;;5453801;26;9638;-91
2024/04/14 04:41:10;;;;;;;;;14.50;13.50;;;;;;;;5404809;26;9643;-89
2024/04/14 04:43:40;;;;;;;;;17.75;16.50;;;;;;;;5403883;26;9572;-91
2024/04/14 04:46:10;;;;;;;;;18.25;16.25;;;;;;;;5403983;26;9611;-89
2024/04/14 04:48:43;;;;;;;;;15.50;12.00;;;;;;;;5405124;26;9539;-92
2024/04/14 04:51:10;;;;;;;;;17.50;17.50;;;;;;;;5452558;26;9571;-91
2024/04/14 04:53:39;;;;;;;;;18.00;15.75;;;;;;;;5442933;26;9446;-88
2024/04/14 04:56:06;;;;;;;;;18.25;16.00;;;;;;;;5418669;26;9746;-89
2024/04/14 04:58:35;;;;;;;;;15.75;13.75;;;;;;;;5409204;26;9431;-86
2024/04/14 05:01:01;;;;;;;;;16.00;13.50;;;;;;;;5408949;26;9454;-87
2024/04/14 05:03:33;;;;;;;;;15.00;9.67;;;;;;;;5409023;26;9554;-89
2024/04/14 05:06:03;;;;;;;;;11.67;11.67;;;;;;;;5410612;26;9363;-88
2024/04/14 05:08:32;;;;;;;;;13.00;13.00;;;;;;;;5409061;26;9362;-87
2024/04/14 05:10:59;;;;;;;;;13.67;13.67;;;;;;;;5423153;26;9367;-85
2024/04/14 05:13:32;;;;;;;;;14.33;13.00;;;;;;;;5433969;26;9410;-93
2024/04/14 05:15:58;;;;;;;;;17.67;15.00;;;;;;;;5401952;26;9293;-92
2024/04/14 05:18:27;;;;;;;;;17.00;12.67;;;;;;;;5450908;26;9088;-92
2024/04/14 05:20:57;;;;;;;;;16.00;14.00;;;;;;;;5406645;26;9282;-93
2024/04/14 05:23:32;;;;;;;;;18.33;14.00;;;;;;;;5403755;26;9300;-91
2024/04/14 05:26:00;;;;;;;;;18.67;17.00;;;;;;;;5385140;26;9241;-94
2024/04/14 05:28:32;;;;;;;;;19.67;18.00;;;;;;;;5402470;26;9276;-94
2024/04/14 05:30:58;;;;;;;;;18.00;18.00;;;;;;;;5401197;25;9255;-91
2024/04/14 05:33:30;;;;;;;;;15.67;14.67;;;;;;;;5403844;26;9059;-92
2024/04/14 05:36:00;;;;;;;;;20.00;18.33;;;;;;;;5384464;26;9190;-94
2024/04/14 05:38:32;;;;;;;;;21.00;16.67;;;;;;;;5402849;26;9615;-79
2024/04/14 05:40:58;;;;;;;;;16.67;16.67;;;;;;;;5402711;26;9069;-79
2024/04/14 05:43:27;;;;;;;;;14.33;14.33;;;;;;;;5407187;26;9023;-81
2024/04/14 05:45:54;;;;;;;;;16.00;16.00;;;;;;;;5403251;26;9110;-77
2024/04/14 05:48:23;;;;;;;;;20.00;18.00;;;;;;;;5401689;26;9101;-79
2024/04/14 05:50:49;;;;;;;;;19.33;18.00;;;;;;;;5400789;26;9275;-80
2024/04/14 05:53:19;;;;;;;;;13.00;13.00;;;;;;;;5401645;26;9317;-81
2024/04/14 05:55:48;;;;;;;;;9.33;9.33;;;;;;;;5400843;26;9103;-80
2024/04/14 05:58:17;;;;;;;;;14.33;13.00;;;;;;;;5402609;26;9003;-89
2024/04/14 06:00:43;;;;;;;;;15.33;15.33;;;;;;;;5401415;26;8947;-86
2024/04/14 06:03:12;;;;;;;;;14.33;12.67;;;;;;;;5403156;26;9007;-83
2024/04/14 06:05:43;;;;;;;;;15.67;13.33;;;;;;;;5407554;26;9206;-81
2024/04/14 06:08:13;;;;;;;;;9.00;9.00;;;;;;;;5442947;26;9146;-79
2024/04/14 06:10:39;;;;;;;;;11.50;10.00;;;;;;;;5449974;26;8924;-79
2024/04/14 06:13:11;;;;;;;;;13.00;11.67;;;;;;;;5405176;26;9094;-76
2024/04/14 06:15:37;;;;;;;;;18.33;13.33;;;;;;;;5405173;26;9051;-78
2024/04/14 06:18:06;;;;;;;;;13.67;13.67;;;;;;;;5404970;26;9035;-80
2024/04/14 06:20:34;;;;;;;;;11.50;10.00;;;;;;;;5404711;26;9002;-76
2024/04/14 06:23:03;;;;;;;;;14.75;12.50;;;;;;;;5405535;26;8828;-82
2024/04/14 06:25:29;;;;;;;;;13.00;11.67;;;;;;;;5404036;26;8848;-75
2024/04/14 06:27:58;;;;;;;;;14.50;11.75;;;;;;;;5404523;26;8985;-74
2024/04/14 06:30:29;;;;;;;;;14.00;11.00;;;;;;;;5382352;25;8729;-74
2024/04/14 06:33:01;;;;;;;;;13.00;13.00;;;;;;;;5404467;26;8856;-74
2024/04/14 06:35:30;;;;;;;;;15.00;15.00;;;;;;;;5404156;26;8876;-74
2024/04/14 06:38:02;;;;;;;;;13.75;13.25;;;;;;;;5403809;26;9026;-74
2024/04/14 06:40:28;;;;;;;;;12.00;10.33;;;;;;;;5403767;26;8973;-76
2024/04/14 06:42:57;;;;;;;;;14.25;11.25;;;;;;;;5403794;26;9080;-74
2024/04/14 06:45:28;;;;;;;;;14.00;12.75;;;;;;;;5405235;26;8852;-73
2024/04/14 06:47:56;;;;;;;;;12.25;12.25;;;;;;;;5405244;26;8895;-73
2024/04/14 06:50:23;;;;;;;;;13.50;11.50;;;;;;;;5405320;26;8844;-73
2024/04/14 06:52:52;;;;;;;;;15.25;12.00;;;;;;;;5404052;26;8839;-75
2024/04/14 06:55:18;;;;;;;;;14.25;13.00;;;;;;;;5404445;26;8922;-74
2024/04/14 06:57:47;;;;;;;;;15.75;14.75;;;;;;;;5403384;26;8813;-75
2024/04/14 07:00:14;;;;;;;;;14.75;12.75;;;;;;;;5403472;26;8871;-75
2024/04/14 07:02:46;;;;;;;;;14.25;14.25;;;;;;;;5403101;26;8862;-74
2024/04/14 07:05:12;;;;;;;;;16.50;12.75;;;;;;;;5403315;26;8813;-74
2024/04/14 07:07:44;;;;;;;;;13.25;12.00;;;;;;;;5402601;26;8886;-74
2024/04/14 07:10:18;;;;;;;;;15.00;15.00;;;;;;;;5403714;26;8866;-74
2024/04/14 07:12:48;;;;;;;;;15.75;12.25;;;;;;;;5403233;26;8851;-75
2024/04/14 07:15:16;;;;;;;;;14.00;13.00;;;;;;;;5403081;26;8890;-74
2024/04/14 07:17:47;;;;;;;;;13.50;13.50;;;;;;;;5403150;26;8832;-74
2024/04/14 07:20:14;;;;;;;;;9.75;9.75;;;;;;;;5403131;26;8868;-76
2024/04/14 07:22:47;;;;;;;;;14.00;12.50;;;;;;;;5438016;26;8840;-75
2024/04/14 07:25:14;;;;;;;;;16.00;12.75;;;;;;;;5418492;26;8908;-76
2024/04/14 07:27:44;;;;;;;;;11.00;9.50;;;;;;;;5405953;26;8936;-77
2024/04/14 07:30:10;;;;;;;;;15.00;15.00;;;;;;;;5380685;26;8856;-78
2024/04/14 07:32:39;;;;;;;;;12.75;12.25;;;;;;;;5400609;26;8860;-76
2024/04/14 07:35:08;;;;;;;;;12.75;12.25;;;;;;;;5402985;26;8832;-75
2024/04/14 07:37:39;;;;;;;;;11.50;11.50;;;;;;;;5403540;26;8856;-77
2024/04/14 07:40:06;;;;;;;;;11.00;11.00;;;;;;;;5402746;26;9715;-77
2024/04/14 07:42:35;;;;;;;;;13.25;13.25;;;;;;;;5403070;26;8844;-77
2024/04/14 07:45:01;;;;;;;;;8.50;8.50;;;;;;;;5403017;26;8863;-79
2024/04/14 07:47:32;;;;;;;;;14.25;12.00;;;;;;;;5447673;26;8872;-80
2024/04/14 07:49:58;;;;;;;;;9.50;9.50;;;;;;;;5405144;26;8872;-77
2024/04/14 07:52:33;;;;;;;;;12.75;12.75;;;;;;;;5403904;26;8843;-77
2024/04/14 07:54:59;;;;;;;;;11.00;11.00;;;;;;;;5447619;26;8997;-77
2024/04/14 07:57:29;;;;;;;;;10.25;10.25;;;;;;;;5403203;26;9375;-79
2024/04/14 07:59:56;;;;;;;;;11.50;8.00;;;;;;;;5430519;26;8978;-76
2024/04/14 08:02:25;;;;;;;;;14.00;12.25;;;;;;;;5418689;26;8774;-76
2024/04/14 08:04:51;;;;;;;;;14.50;9.75;;;;;;;;5384810;26;8840;-75
2024/04/14 08:07:20;;;;;;;;;8.50;8.50;;;;;;;;5402370;26;8874;-74
2024/04/14 08:09:49;;;;;;;;;12.50;12.50;;;;;;;;5402799;26;8855;-76
2024/04/14 08:12:18;;;;;;;;;10.75;8.75;;;;;;;;5402479;26;9566;-79
2024/04/14 08:14:47;;;;;;;;;10.00;10.00;;;;;;;;5401530;26;8844;-76
2024/04/14 08:17:16;;;;;;;;;11.00;11.00;;;;;;;;5402537;26;8836;-77
2024/04/14 08:19:44;;;;;;;;;10.50;9.75;;;;;;;;5403503;26;8840;-76
2024/04/14 08:22:16;;;;;;;;;7.00;7.00;;;;;;;;5403336;26;8922;-77
2024/04/14 08:24:42;;;;;;;;;10.00;7.75;;;;;;;;5404659;26;8860;-77
2024/04/14 08:27:13;;;;;;;;;7.25;7.25;;;;;;;;5404098;26;8816;-78
2024/04/14 08:29:40;;;;;;;;;8.25;6.00;;;;;;;;5384521;26;8848;-80
2024/04/14 08:32:09;;;;;;;;;8.50;7.75;;;;;;;;5403823;26;8900;-77
2024/04/14 08:36:05;;;;;;;;;6.00;5.00;;;;;;;;5566535;25;13093;-83
2024/04/14 08:38:32;;;;;;;;;6.50;6.00;;;;;;;;5537417;25;8804;-84
2024/04/14 08:41:01;;;;;;;;;7.00;7.00;;;;;;;;5518740;25;8827;-81
2024/04/14 08:43:30;;;;;;;;;5.75;5.75;;;;;;;;5530440;25;8816;-79
2024/04/14 08:46:00;;;;;;;;;10.00;8.75;;;;;;;;5509843;25;8827;-79
2024/04/14 08:48:29;;;;;;;;;7.75;7.75;;;;;;;;5530125;25;8870;-79
2024/04/14 08:51:02;;;;;;;;;8.00;7.00;;;;;;;;5533761;25;8807;-81
2024/04/14 08:53:28;;;;;;;;;7.25;7.25;;;;;;;;5506314;25;8785;-82
2024/04/14 08:55:58;;;;;;;;;9.50;7.25;;;;;;;;5527578;25;8812;-79
2024/04/14 08:58:26;;;;;;;;;10.50;8.00;;;;;;;;5539833;25;8839;-80
2024/04/14 09:01:02;;;;;;;;;4.75;4.75;;;;;;;;5500997;25;8769;-80
2024/04/14 09:03:31;;;;;;;;;9.00;7.25;;;;;;;;5466600;26;8870;-81
2024/04/14 09:06:05;;;;;;;;;7.50;5.75;;;;;;;;5466861;26;8852;-80
2024/04/14 09:08:32;;;;;;;;;6.75;6.75;;;;;;;;5467704;26;8839;-82
2024/04/14 09:11:00;;;;;;;;;10.00;8.00;;;;;;;;5461262;26;8842;-81
2024/04/14 09:13:28;;;;;;;;;6.00;4.50;;;;;;;;5460107;26;8832;-79
2024/04/14 09:15:58;;;;;;;;;6.00;6.00;;;;;;;;5456631;26;9765;-80
2024/04/14 09:18:30;;;;;;;;;6.00;6.00;;;;;;;;5459657;26;8910;-81
2024/04/14 09:21:09;;;;;;;;;7.00;7.00;;;;;;;;5464105;26;8828;-81
2024/04/14 09:23:35;;;;;;;;;11.50;9.25;;;;;;;;5462194;26;8851;-84
2024/04/14 09:26:07;;;;;;;;;6.00;6.00;;;;;;;;5461478;26;8852;-84
2024/04/14 09:28:33;;;;;;;;;5.25;5.25;;;;;;;;5456031;26;8820;-86
2024/04/14 09:31:02;;;;;;;;;4.50;4.50;;;;;;;;5453986;26;8813;-84
2024/04/14 09:33:31;;;;;;;;;6.75;6.75;;;;;;;;5430780;26;9788;-87
2024/04/14 09:36:08;;;;;;;;;6.75;6.50;;;;;;;;5430242;26;8866;-84
2024/04/14 09:38:35;;;;;;;;;5.50;5.50;;;;;;;;5429746;26;8894;-81
2024/04/14 09:41:04;;;;;;;;;6.75;6.25;;;;;;;;5431060;26;8969;-84
2024/04/14 09:43:32;;;;;;;;;7.50;6.25;;;;;;;;5429205;26;8891;-82
2024/04/14 09:46:01;;;;;;;;;9.25;7.25;;;;;;;;5421155;26;8824;-81
2024/04/14 09:48:28;;;;;;;;;5.00;5.00;;;;;;;;5410219;26;8871;-79
2024/04/14 09:50:57;;;;;;;;;6.25;6.25;;;;;;;;5414531;26;8844;-84
2024/04/14 09:53:31;;;;;;;;;5.75;5.75;;;;;;;;5414355;26;8848;-80
2024/04/14 09:56:01;;;;;;;;;5.50;4.75;;;;;;;;5409443;26;8845;-84
2024/04/14 09:58:30;;;;;;;;;7.00;7.00;;;;;;;;5414479;26;8831;-79
2024/04/14 10:01:00;;;;;;;;;7.00;7.00;;;;;;;;5433931;26;8761;-82
2024/04/14 10:03:30;;;;;;;;;8.00;8.00;;;;;;;;5452171;26;8889;-82
2024/04/14 10:06:06;;;;;;;;;6.75;6.75;;;;;;;;5451168;26;8932;-81
2024/04/14 10:08:36;;;;;;;;;7.75;5.75;;;;;;;;5452051;26;8852;-81
2024/04/14 10:11:08;;;;;;;;;98.25;91.75;;;;;;;;5428633;26;8839;-80
2024/04/14 10:13:54;;;;;;;;;8.75;8.75;;;;;;;;5451491;26;11639;-81
2024/04/14 10:16:23;;;;;;;;;8.00;8.00;;;;;;;;5450866;26;9092;-80
2024/04/14 10:18:53;;;;;;;;;5.00;5.00;;;;;;;;5450323;26;8883;-80
2024/04/14 10:21:22;;;;;;;;;4.60;4.60;;;;;;;;5450251;26;8864;-79
2024/04/14 10:23:56;;;;;;;;;6.80;5.60;;;;;;;;5448999;26;8824;-79
2024/04/14 10:26:22;;;;;;;;;4.00;4.00;;;;;;;;5446691;26;8995;-80
2024/04/14 10:28:51;;;;;;;;;4.20;4.20;;;;;;;;5424126;26;8879;-79
2024/04/14 10:31:25;;;;;;;;;43.00;36.50;;;;;;;;5415423;26;8958;-79
2024/04/14 10:34:06;;;;;;;;;8.00;6.00;;;;;;;;5447336;26;8832;-81
2024/04/14 10:36:33;;;;;;;;;7.00;4.80;;;;;;;;5451335;26;8875;-79
2024/04/14 10:39:05;;;;;;;;;28.00;26.75;;;;;;;;5451018;26;8922;-78
2024/04/14 10:41:31;;;;;;;;;29.00;26.75;;;;;;;;5448383;26;8856;-81
2024/04/14 10:44:00;;;;;;;;;8.25;8.25;;;;;;;;5449221;26;8822;-78
2024/04/14 10:46:29;;;;;;;;;4.60;4.60;;;;;;;;5448730;26;8836;-81
2024/04/14 10:48:58;;;;;;;;;4.60;4.60;;;;;;;;5449450;26;8871;-78
2024/04/14 10:51:24;;;;;;;;;4.40;3.80;;;;;;;;5448089;26;8921;-79
2024/04/14 10:53:55;;;;;;;;;4.00;4.00;;;;;;;;5448449;26;8851;-78
2024/04/14 10:56:24;;;;;;;;;4.00;4.00;;;;;;;;5448264;26;8848;-78
2024/04/14 10:58:53;;;;;;;;;4.80;3.00;;;;;;;;5446490;26;8937;-77
2024/04/14 11:01:19;;;;;;;;;4.00;4.00;;;;;;;;5444421;26;8876;-77
2024/04/14 11:03:48;;;;;;;;;3.40;3.00;;;;;;;;5447660;26;8817;-78
2024/04/14 11:06:15;;;;;;;;;3.60;3.00;;;;;;;;5448513;26;8843;-77
2024/04/14 11:08:44;;;;;;;;;2.00;2.00;;;;;;;;5447388;26;8844;-78
2024/04/14 11:11:16;;;;;;;;;4.80;3.00;;;;;;;;5450137;26;8855;-79
2024/04/14 11:13:48;;;;;;;;;5.40;2.80;;;;;;;;5449786;26;8850;-79
2024/04/14 11:16:16;;;;;;;;;2.80;2.80;;;;;;;;5447149;26;8840;-77
2024/04/14 11:18:46;;;;;;;;;5.60;2.00;;;;;;;;5451011;26;8858;-78
2024/04/14 11:21:23;;;;;;;;;2.80;2.80;;;;;;;;5437192;26;8816;-78
2024/04/14 11:23:52;;;;;;;;;4.00;3.20;;;;;;;;5446806;26;8816;-79
2024/04/14 11:26:18;;;;;;;;;4.20;2.20;;;;;;;;5449154;26;8848;-78
2024/04/14 11:28:53;;;;;;;;;4.20;3.00;;;;;;;;5448689;26;8828;-80
2024/04/14 11:31:19;;;;;;;;;3.60;3.40;;;;;;;;5436532;26;8776;-76
2024/04/14 11:33:55;;;;;;;;;2.60;2.60;;;;;;;;5448233;26;8810;-80
2024/04/14 11:36:21;;;;;;;;;5.60;3.80;;;;;;;;5449343;26;8871;-80
2024/04/14 11:38:50;;;;;;;;;3.00;2.60;;;;;;;;5449187;26;8963;-80
2024/04/14 11:41:19;;;;;;;;;2.00;2.00;;;;;;;;5448650;26;8860;-82
2024/04/14 11:43:51;;;;;;;;;3.80;3.80;;;;;;;;5449594;26;8887;-81
2024/04/14 11:46:19;;;;;;;;;2.40;2.40;;;;;;;;5448364;26;8851;-82
2024/04/14 11:48:51;;;;;;;;;3.00;3.00;;;;;;;;5451328;26;8899;-79
2024/04/14 11:51:17;;;;;;;;;2.00;2.00;;;;;;;;5452846;26;9458;-79
2024/04/14 11:53:46;;;;;;;;;2.00;2.00;;;;;;;;5452985;26;8836;-77
2024/04/14 11:56:12;;;;;;;;;2.00;2.00;;;;;;;;5449278;26;8922;-79
2024/04/14 11:58:41;;;;;;;;;2.60;2.20;;;;;;;;5450190;26;8864;-80
2024/04/14 12:01:15;;;;;;;;;3.60;3.60;;;;;;;;5450706;26;8792;-78
2024/04/14 12:03:44;;;;;;;;;2.00;2.00;;;;;;;;5449659;26;8987;-84
2024/04/14 12:06:13;;;;;;;;;1.40;1.20;;;;;;;;5445601;26;8824;-80
2024/04/14 12:08:42;;;;;;;;;2.00;2.00;;;;;;;;5447300;26;8909;-83
2024/04/14 12:11:12;;;;;;;;;1.00;1.00;;;;;;;;5443471;26;8886;-81
2024/04/14 12:13:45;;;;;;;;;2.00;1.00;;;;;;;;5447268;26;8862;-82
2024/04/14 12:16:15;;;;;;;;;3.00;3.00;;;;;;;;5446891;26;8883;-81
2024/04/14 12:18:44;;;;;;;;;3.00;3.00;;;;;;;;5448394;26;8888;-82
2024/04/14 12:21:15;;;;;;;;;5.00;5.00;;;;;;;;5447253;26;8843;-81
2024/04/14 12:23:47;;;;;;;;;2.00;2.00;;;;;;;;5436468;26;8923;-80
2024/04/14 12:26:15;;;;;;;;;2.00;2.00;;;;;;;;5444429;26;8828;-81
2024/04/14 12:28:44;;;;;;;;;0.60;0.60;;;;;;;;5447438;26;8872;-81
2024/04/14 12:31:13;;;;;;;;;2.00;2.00;;;;;;;;5448077;26;8815;-82
2024/04/14 12:33:43;;;;;;;;;1.80;1.80;;;;;;;;5448229;26;8954;-82
2024/04/14 12:36:12;;;;;;;;;1.20;1.20;;;;;;;;5448386;26;8920;-82
2024/04/14 12:38:42;;;;;;;;;2.60;1.00;;;;;;;;5447754;26;8938;-82
2024/04/14 12:41:14;;;;;;;;;2.80;2.80;;;;;;;;5447429;26;9684;-82
2024/04/14 12:43:43;;;;;;;;;2.00;2.00;;;;;;;;5447493;26;9601;-82
2024/04/14 12:46:09;;;;;;;;;3.40;2.00;;;;;;;;5447057;26;8836;-83
2024/04/14 12:48:45;;;;;;;;;1.60;1.60;;;;;;;;5447121;26;8854;-82
2024/04/14 12:51:11;;;;;;;;;1.00;1.00;;;;;;;;5447992;26;8952;-83
2024/04/14 12:53:41;;;;;;;;;3.60;2.00;;;;;;;;5448983;26;8864;-83
2024/04/14 12:56:13;;;;;;;;;3.60;2.00;;;;;;;;5449049;26;9625;-82
2024/04/14 12:58:41;;;;;;;;;1.00;1.00;;;;;;;;5449041;26;8832;-82
2024/04/14 13:01:11;;;;;;;;;1.20;1.20;;;;;;;;5446871;26;8775;-80
2024/04/14 13:03:39;;;;;;;;;2.60;1.00;;;;;;;;5446306;26;8832;-81
2024/04/14 13:06:08;;;;;;;;;1.00;1.00;;;;;;;;5445761;26;8828;-79
2024/04/14 13:08:34;;;;;;;;;1.40;1.00;;;;;;;;5447210;26;8861;-80
2024/04/14 13:11:03;;;;;;;;;2.20;2.20;;;;;;;;5446759;26;8915;-81
2024/04/14 13:13:30;;;;;;;;;2.20;2.20;;;;;;;;5446449;26;8824;-80
2024/04/14 13:16:01;;;;;;;;;53.50;37.75;;;;;;;;5447690;26;9633;-81
2024/04/14 13:18:27;;;;;;;;;2.00;2.00;;;;;;;;5447326;26;8890;-81
2024/04/14 13:21:03;;;;;;;;;85.25;59.75;;;;;;;;5447655;26;8828;-80
2024/04/14 13:23:30;;;;;;;;;1.20;1.20;;;;;;;;5450299;26;8800;-78
2024/04/14 13:26:02;;;;;;;;;1.20;1.20;;;;;;;;5445261;26;8779;-79
2024/04/14 13:28:30;;;;;;;;;1.20;0.40;;;;;;;;5450794;26;8812;-78
2024/04/14 13:30:59;;;;;;;;;0.40;0.00;;;;;;;;5451895;26;8781;-78
2024/04/14 13:33:25;;;;;;;;;1.20;1.20;;;;;;;;5451750;26;8824;-79
2024/04/14 13:35:54;;;;;;;;;1.60;1.60;;;;;;;;5452382;26;8852;-79
2024/04/14 13:38:23;;;;;;;;;3.00;1.40;;;;;;;;5451372;26;8812;-78
2024/04/14 13:40:52;;;;;;;;;0.40;0.40;;;;;;;;5453166;26;8828;-77
2024/04/14 13:43:18;;;;;;;;;2.60;0.40;;;;;;;;5452413;26;8864;-78
2024/04/14 13:45:47;;;;;;;;;2.20;2.20;;;;;;;;5450214;26;8882;-78
2024/04/14 13:48:13;;;;;;;;;1.00;1.00;;;;;;;;5449215;26;9027;-78
2024/04/14 13:50:44;;;;;;;;;0.80;0.80;;;;;;;;5450489;26;8905;-85
2024/04/14 13:53:10;;;;;;;;;1.00;1.00;;;;;;;;5450409;26;8847;-78
2024/04/14 13:55:45;;;;;;;;;1.20;0.80;;;;;;;;5449991;26;8923;-79
2024/04/14 13:58:12;;;;;;;;;1.20;1.20;;;;;;;;5448085;26;8961;-80
2024/04/14 14:00:41;;;;;;;;;1.40;0.20;;;;;;;;5446279;26;8847;-85
2024/04/14 14:03:10;;;;;;;;;0.00;0.00;;;;;;;;5449906;26;9644;-84
2024/04/14 14:05:39;;;;;;;;;1.40;1.40;;;;;;;;5445320;26;8898;-80
2024/04/14 14:08:06;;;;;;;;;0.80;0.80;;;;;;;;5449049;26;8831;-79
2024/04/14 14:10:35;;;;;;;;;1.60;0.40;;;;;;;;5449090;26;8843;-80
2024/04/14 14:13:07;;;;;;;;;0.80;0.80;;;;;;;;5432228;26;8860;-80
2024/04/14 14:15:36;;;;;;;;;0.40;0.40;;;;;;;;5443387;26;8904;-78
2024/04/14 14:18:02;;;;;;;;;1.20;1.00;;;;;;;;5449303;26;8851;-78
2024/04/14 14:20:31;;;;;;;;;0.00;0.00;;;;;;;;5448471;26;8840;-80
2024/04/14 14:23:01;;;;;;;;;1.60;1.00;;;;;;;;5449453;26;8820;-76
2024/04/14 14:25:30;;;;;;;;;2.80;1.00;;;;;;;;5448150;26;8961;-76
2024/04/14 14:28:02;;;;;;;;;1.20;1.20;;;;;;;;5449382;26;9554;-78
2024/04/14 14:30:31;;;;;;;;;0.80;0.80;;;;;;;;5435269;26;8738;-79
2024/04/14 14:36:20;;;;;;;;;0.00;0.00;;;;;;;;5447485;26;8840;-80
2024/04/14 14:38:38;;;;;;;;;0.20;0.20;;;;;;;;5450366;26;8823;-77
2024/04/14 14:41:06;;;;;;;;;1.00;1.00;;;;;;;;5447213;26;8836;-78
2024/04/14 14:43:38;;;;;;;;;1.40;1.40;;;;;;;;5446272;26;8866;-79
2024/04/14 14:46:10;;;;;;;;;0.00;0.00;;;;;;;;5448495;26;8836;-77
2024/04/14 14:48:36;;;;;;;;;0.20;0.20;;;;;;;;5428206;26;8907;-77
2024/04/14 14:51:05;;;;;;;;;0.80;0.60;;;;;;;;5447842;26;8838;-76
2024/04/14 14:53:31;;;;;;;;;0.00;0.00;;;;;;;;5448317;26;8832;-77
2024/04/14 14:56:00;;;;;;;;;2.40;1.40;;;;;;;;5447807;26;8957;-79
2024/04/14 14:58:29;;;;;;;;;1.00;1.00;;;;;;;;5449427;26;8876;-77
2024/04/14 15:00:58;;;;;;;;;2.80;1.80;;;;;;;;5447510;26;8785;-77
2024/04/14 15:03:29;;;;;;;;;2.00;0.00;;;;;;;;5440636;26;8852;-77